createdAt,value
2022-11-12T00:02:07.384Z,0.00
2022-11-12T00:05:10.339Z,0.10
2022-11-12T00:08:13.410Z,0.10
2022-11-12T00:11:14.967Z,0.00
2022-11-12T00:14:16.270Z,0.10
2022-11-12T00:17:17.602Z,0.10
2022-11-12T00:20:19.497Z,0.15
2022-11-12T00:23:22.558Z,0.10
2022-11-12T00:26:24.270Z,0.10
2022-11-12T00:29:25.950Z,0.05
2022-11-12T00:32:27.427Z,0.13
2022-11-12T00:35:29.293Z,0.00
2022-11-12T00:38:33.131Z,0.10
2022-11-12T00:41:34.518Z,0.10
2022-11-12T00:44:36.416Z,0.10
2022-11-12T00:47:37.743Z,0.10
2022-11-12T00:50:39.380Z,0.10
2022-11-12T00:53:42.096Z,0.10
2022-11-12T00:56:43.515Z,0.10
2022-11-12T00:59:45.094Z,0.10
2022-11-12T01:02:50.944Z,0.10
2022-11-12T01:05:53.264Z,0.20
2022-11-12T01:08:56.643Z,0.10
2022-11-12T01:11:58.249Z,0.10
2022-11-12T01:14:59.540Z,0.10
2022-11-12T01:18:00.999Z,0.10
2022-11-12T01:21:03.402Z,0.08
2022-11-12T01:24:07.138Z,0.00
2022-11-12T01:27:08.469Z,0.00
2022-11-12T01:30:11.470Z,0.00
2022-11-12T01:33:12.880Z,0.10
2022-11-12T01:36:15.233Z,0.10
2022-11-12T01:39:18.234Z,0.10
2022-11-12T01:42:19.655Z,0.10
2022-11-12T01:45:21.899Z,0.08
2022-11-12T01:48:28.212Z,0.00
2022-11-12T01:51:35.749Z,0.08
2022-11-12T01:54:39.620Z,0.10
2022-11-12T01:57:44.543Z,0.00
2022-11-12T02:00:46.726Z,0.00
2022-11-12T02:03:48.023Z,0.10
2022-11-12T02:06:52.224Z,0.10
2022-11-12T02:09:56.118Z,0.10
2022-11-12T02:13:17.606Z,0.10
2022-11-12T02:16:19.390Z,0.10
2022-11-12T02:19:20.847Z,0.10
2022-11-12T02:22:23.821Z,0.00
2022-11-12T02:25:26.151Z,0.10
2022-11-12T02:28:28.599Z,0.00
2022-11-12T02:31:30.584Z,0.10
2022-11-12T02:34:32.081Z,0.00
2022-11-12T02:37:34.668Z,0.00
2022-11-12T02:40:35.922Z,0.00
2022-11-12T02:43:37.443Z,0.08
2022-11-12T02:46:38.768Z,0.00
2022-11-12T02:49:40.238Z,0.00
2022-11-12T02:52:43.515Z,0.00
2022-11-12T02:55:45.246Z,0.00
2022-11-12T02:58:46.559Z,0.03
2022-11-12T03:01:48.064Z,0.00
2022-11-12T03:04:49.824Z,0.00
2022-11-12T03:07:56.516Z,0.00
2022-11-12T03:10:58.262Z,0.00
2022-11-12T03:13:59.609Z,0.00
2022-11-12T03:17:00.909Z,0.00
2022-11-12T03:20:02.492Z,0.00
2022-11-12T03:23:07.441Z,0.00
2022-11-12T03:26:08.986Z,0.00
2022-11-12T03:29:10.624Z,0.00
2022-11-12T03:32:11.764Z,0.00
2022-11-12T03:35:13.234Z,0.00
2022-11-12T03:38:15.946Z,0.00
2022-11-12T03:41:17.224Z,0.00
2022-11-12T03:44:18.575Z,0.00
2022-11-12T03:47:19.851Z,0.00
2022-11-12T03:50:23.002Z,0.00
2022-11-12T03:53:26.276Z,0.00
2022-11-12T03:56:27.793Z,0.00
2022-11-12T03:59:29.301Z,0.00
2022-11-12T04:02:31.059Z,0.00
2022-11-12T04:05:49.848Z,0.00
2022-11-12T04:08:52.576Z,0.00
2022-11-12T04:11:53.932Z,0.00
2022-11-12T04:14:55.172Z,0.00
2022-11-12T04:18:16.351Z,0.00
2022-11-12T04:21:35.407Z,0.00
2022-11-12T04:24:57.150Z,0.00
2022-11-12T04:27:58.470Z,0.00
2022-11-12T04:30:59.044Z,0.00
2022-11-12T04:34:20.503Z,0.00
2022-11-12T04:37:23.722Z,0.00
2022-11-12T04:40:45.912Z,0.00
2022-11-12T04:44:04.746Z,0.00
2022-11-12T04:47:06.140Z,0.00
2022-11-12T04:50:10.430Z,0.00
2022-11-12T04:53:12.003Z,0.00
2022-11-12T04:56:14.874Z,0.00
2022-11-12T04:59:16.163Z,0.00
2022-11-12T05:02:18.411Z,0.00
2022-11-12T05:05:20.030Z,0.00
2022-11-12T05:08:21.814Z,0.00
2022-11-12T05:11:24.421Z,0.00
2022-11-12T05:14:26.634Z,0.00
2022-11-12T05:17:28.027Z,0.00
2022-11-12T05:20:29.631Z,0.00
2022-11-12T05:23:30.947Z,0.00
2022-11-12T05:26:33.386Z,0.00
2022-11-12T05:29:35.107Z,0.00
2022-11-12T05:32:36.719Z,0.00
2022-11-12T05:35:37.979Z,0.00
2022-11-12T05:38:39.248Z,0.00
2022-11-12T05:42:10.734Z,0.00
2022-11-12T05:45:04.013Z,0.00
2022-11-12T05:48:05.657Z,0.00
2022-11-12T05:51:12.930Z,0.00
2022-11-12T05:54:14.980Z,0.00
2022-11-12T05:57:17.617Z,0.00
2022-11-12T06:00:19.593Z,0.00
2022-11-12T06:03:21.115Z,0.00
2022-11-12T06:06:22.430Z,0.00
2022-11-12T06:09:23.852Z,0.00
2022-11-12T06:12:26.475Z,0.00
2022-11-12T06:15:27.975Z,0.00
2022-11-12T06:18:29.637Z,0.00
2022-11-12T06:21:31.004Z,0.00
2022-11-12T06:24:35.249Z,0.00
2022-11-12T06:27:38.855Z,0.00
2022-11-12T06:30:40.545Z,0.00
2022-11-12T06:33:41.978Z,0.00
2022-11-12T06:36:43.786Z,0.00
2022-11-12T06:39:45.263Z,0.00
2022-11-12T06:42:48.049Z,0.08
2022-11-12T06:45:49.720Z,0.20
2022-11-12T06:48:50.984Z,0.70
2022-11-12T06:51:52.768Z,1.50
2022-11-12T06:54:54.487Z,1.50
2022-11-12T06:57:57.172Z,1.60
2022-11-12T07:00:58.874Z,0.80
2022-11-12T07:04:00.217Z,0.40
2022-11-12T07:07:02.700Z,0.20
2022-11-12T07:10:07.106Z,0.20
2022-11-12T07:13:10.158Z,0.10
2022-11-12T07:16:11.903Z,0.10
2022-11-12T07:19:13.514Z,0.05
2022-11-12T07:22:15.052Z,0.10
2022-11-12T07:25:16.335Z,0.00
2022-11-12T07:28:19.344Z,0.10
2022-11-12T07:31:21.851Z,0.00
2022-11-12T07:34:23.307Z,0.00
2022-11-12T07:37:24.669Z,0.00
2022-11-12T07:40:26.124Z,0.00
2022-11-12T07:43:29.198Z,0.00
2022-11-12T07:46:30.793Z,0.20
2022-11-12T07:49:32.254Z,0.17
2022-11-12T07:52:33.867Z,0.20
2022-11-12T07:55:35.438Z,0.28
2022-11-12T07:58:38.122Z,0.30
2022-11-12T08:01:41.106Z,0.40
2022-11-12T08:04:42.907Z,0.70
2022-11-12T08:07:44.539Z,1.00
2022-11-12T08:10:47.234Z,1.08
2022-11-12T08:13:50.617Z,1.20
2022-11-12T08:16:51.803Z,1.13
2022-11-12T08:19:55.440Z,2.00
2022-11-12T08:23:01.081Z,1.25
2022-11-12T08:29:08.736Z,0.80
2022-11-12T08:32:10.983Z,0.70
2022-11-12T08:35:12.252Z,0.60
2022-11-12T08:38:14.194Z,0.77
2022-11-12T08:41:17.622Z,0.70
2022-11-12T08:44:20.775Z,0.50
2022-11-12T08:47:22.188Z,0.40
2022-11-12T08:50:23.789Z,0.40
2022-11-12T08:53:26.166Z,0.35
2022-11-12T08:56:27.450Z,0.35
2022-11-12T08:59:30.265Z,0.17
2022-11-12T09:02:32.023Z,0.40
2022-11-12T09:05:33.651Z,0.57
2022-11-12T09:08:37.243Z,0.70
2022-11-12T09:11:39.104Z,0.80
2022-11-12T09:14:41.822Z,1.20
2022-11-12T09:17:43.471Z,2.03
2022-11-12T09:20:45.411Z,3.00
2022-11-12T09:23:47.250Z,5.80
2022-11-12T09:26:48.849Z,4.05
2022-11-12T09:29:51.824Z,2.45
2022-11-12T09:32:58.598Z,1.50
2022-11-12T09:36:02.302Z,1.40
2022-11-12T09:39:03.769Z,1.08
2022-11-12T09:42:09.172Z,1.02
2022-11-12T09:45:20.911Z,0.88
2022-11-12T09:48:26.487Z,0.90
2022-11-12T09:51:32.304Z,0.90
2022-11-12T09:54:36.244Z,1.60
2022-11-12T09:57:37.842Z,1.50
2022-11-12T10:00:44.971Z,1.10
2022-11-12T10:03:54.779Z,1.20
2022-11-12T10:07:02.838Z,0.90
2022-11-12T10:10:11.477Z,0.60
2022-11-12T10:13:37.065Z,0.60
2022-11-12T10:16:54.589Z,0.40
2022-11-12T10:20:07.472Z,0.57
2022-11-12T10:23:21.907Z,0.50
2022-11-12T10:26:25.872Z,0.80
2022-11-12T10:29:31.125Z,1.00
2022-11-12T10:32:35.505Z,0.80
2022-11-12T10:35:38.127Z,0.80
2022-11-12T10:38:44.261Z,0.60
2022-11-12T10:41:45.729Z,0.70
2022-11-12T10:44:48.123Z,0.60
2022-11-12T10:47:52.236Z,0.60
2022-11-12T10:50:53.907Z,0.98
2022-11-12T10:53:55.192Z,2.53
2022-11-12T10:56:56.558Z,1.10
2022-11-12T11:00:10.748Z,0.50
2022-11-12T11:03:22.289Z,0.63
2022-11-12T11:06:26.675Z,1.00
2022-11-12T11:09:28.171Z,0.95
2022-11-12T11:12:31.591Z,0.80
2022-11-12T11:15:32.850Z,0.80
2022-11-12T11:18:38.886Z,0.82
2022-11-12T11:22:02.975Z,1.05
2022-11-12T11:25:27.714Z,1.08
2022-11-12T11:28:38.219Z,0.85
2022-11-12T11:31:50.521Z,1.00
2022-11-12T11:35:05.767Z,0.70
2022-11-12T11:38:22.573Z,1.00
2022-11-12T11:41:52.511Z,0.90
2022-11-12T11:45:07.670Z,0.40
2022-11-12T11:48:19.831Z,0.50
2022-11-12T11:51:37.424Z,0.50
2022-11-12T11:55:06.126Z,0.60
2022-11-12T11:58:16.094Z,0.50
2022-11-12T12:01:24.761Z,0.50
2022-11-12T12:04:46.065Z,0.73
2022-11-12T12:07:57.294Z,1.05
2022-11-12T12:11:09.126Z,1.80
2022-11-12T12:14:27.544Z,1.52
2022-11-12T12:17:43.663Z,0.90
2022-11-12T12:20:52.751Z,0.55
2022-11-12T12:24:00.944Z,0.77
2022-11-12T12:27:09.276Z,0.80
2022-11-12T12:30:19.592Z,0.70
2022-11-12T12:33:29.167Z,0.80
2022-11-12T12:36:35.488Z,0.70
2022-11-12T12:39:48.130Z,0.60
2022-11-12T12:42:55.074Z,0.50
2022-11-12T12:45:59.039Z,0.50
2022-11-12T12:49:02.913Z,0.52
2022-11-12T12:52:04.654Z,0.40
2022-11-12T12:55:28.198Z,0.77
2022-11-12T12:58:31.129Z,0.50
2022-11-12T13:01:35.292Z,0.60
2022-11-12T13:04:54.772Z,0.40
2022-11-12T13:08:01.154Z,0.40
2022-11-12T13:11:04.233Z,0.30
2022-11-12T13:14:35.401Z,0.20
2022-11-12T13:17:51.455Z,0.40
2022-11-12T13:21:09.584Z,0.30
2022-11-12T13:24:11.989Z,0.38
2022-11-12T13:27:14.874Z,0.30
2022-11-12T13:30:59.516Z,0.20
2022-11-12T13:34:14.055Z,0.20
2022-11-12T13:37:21.420Z,0.30
2022-11-12T13:40:34.634Z,0.30
2022-11-12T13:43:40.794Z,0.20
2022-11-12T13:46:42.987Z,0.40
2022-11-12T13:49:46.777Z,0.30
2022-11-12T13:52:49.406Z,0.30
2022-11-12T13:55:54.193Z,0.30
2022-11-12T13:59:14.991Z,0.30
2022-11-12T14:02:23.227Z,0.30
2022-11-12T14:05:27.423Z,0.40
2022-11-12T14:08:41.555Z,0.30
2022-11-12T14:12:15.476Z,0.30
2022-11-12T14:15:29.857Z,0.20
2022-11-12T14:18:41.398Z,0.20
2022-11-12T14:21:42.915Z,0.20
2022-11-12T14:24:46.004Z,0.20
2022-11-12T14:27:49.140Z,0.35
2022-11-12T14:30:52.068Z,0.20
2022-11-12T14:33:53.530Z,0.20
2022-11-12T14:36:56.239Z,0.50
2022-11-12T14:39:57.695Z,0.65
2022-11-12T14:42:59.047Z,0.50
2022-11-12T14:46:04.195Z,0.45
2022-11-12T14:49:13.412Z,0.60
2022-11-12T14:52:19.182Z,0.70
2022-11-12T14:55:26.064Z,0.80
2022-11-12T14:58:28.580Z,0.80
2022-11-12T15:02:21.750Z,0.77
2022-11-12T15:05:00.260Z,0.55
2022-11-12T15:08:03.843Z,0.60
2022-11-12T15:11:24.887Z,0.50
2022-11-12T15:14:26.827Z,0.50
2022-11-12T15:17:33.249Z,0.50
2022-11-12T15:20:35.030Z,0.55
2022-11-12T15:23:36.564Z,0.45
2022-11-12T15:26:40.791Z,0.40
2022-11-12T15:29:42.212Z,0.45
2022-11-12T15:32:45.779Z,0.50
2022-11-12T15:35:57.236Z,0.30
2022-11-12T15:38:58.805Z,0.30
2022-11-12T15:42:03.271Z,0.40
2022-11-12T15:45:10.846Z,0.50
2022-11-12T15:48:13.901Z,0.70
2022-11-12T15:51:17.413Z,0.70
2022-11-12T15:54:19.113Z,0.60
2022-11-12T15:57:23.604Z,0.63
2022-11-12T16:00:27.324Z,0.85
2022-11-12T16:03:31.402Z,1.00
2022-11-12T16:06:32.892Z,1.50
2022-11-12T16:09:34.782Z,1.00
2022-11-12T16:12:36.328Z,1.00
2022-11-12T16:15:38.516Z,1.17
2022-11-12T16:18:41.620Z,1.20
2022-11-12T16:21:42.940Z,0.98
2022-11-12T16:24:44.324Z,1.10
2022-11-12T16:27:46.755Z,1.00
2022-11-12T16:30:50.927Z,0.73
2022-11-12T16:33:53.814Z,0.70
2022-11-12T16:36:55.135Z,1.23
2022-11-12T16:39:56.642Z,1.10
2022-11-12T16:42:58.623Z,0.90
2022-11-12T16:46:00.380Z,0.80
2022-11-12T16:49:03.351Z,1.58
2022-11-12T16:52:05.160Z,2.90
2022-11-12T16:55:07.573Z,3.15
2022-11-12T16:58:08.835Z,3.75
2022-11-12T17:01:15.507Z,2.72
2022-11-12T17:04:18.511Z,1.50
2022-11-12T17:07:20.187Z,1.10
2022-11-12T17:10:23.953Z,2.10
2022-11-12T17:13:25.627Z,1.48
2022-11-12T17:16:27.046Z,1.00
2022-11-12T17:19:29.919Z,1.15
2022-11-12T17:22:31.945Z,1.10
2022-11-12T17:25:33.327Z,1.10
2022-11-12T17:28:35.136Z,0.70
2022-11-12T17:31:37.158Z,0.65
2022-11-12T17:34:39.921Z,0.75
2022-11-12T17:37:41.299Z,0.80
2022-11-12T17:40:42.913Z,0.77
2022-11-12T17:43:44.177Z,0.80
2022-11-12T17:46:46.754Z,1.00
2022-11-12T17:49:49.408Z,1.77
2022-11-12T17:52:50.967Z,1.48
2022-11-12T17:55:57.378Z,1.75
2022-11-12T17:58:59.433Z,1.30
2022-11-12T18:02:01.180Z,0.70
2022-11-12T18:05:03.853Z,0.70
2022-11-12T18:08:05.772Z,0.40
2022-11-12T18:11:07.838Z,0.50
2022-11-12T18:14:09.541Z,0.50
2022-11-12T18:17:10.839Z,0.30
2022-11-12T18:20:14.032Z,0.30
2022-11-12T18:23:15.431Z,0.22
2022-11-12T18:26:19.135Z,0.20
2022-11-12T18:29:20.852Z,0.30
2022-11-12T18:32:22.068Z,0.20
2022-11-12T18:35:29.593Z,0.30
2022-11-12T18:38:34.367Z,0.93
2022-11-12T18:41:35.694Z,1.17
2022-11-12T18:44:36.887Z,1.77
2022-11-12T18:47:38.201Z,2.08
2022-11-12T18:50:41.061Z,1.75
2022-11-12T18:53:43.110Z,1.60
2022-11-12T18:56:44.456Z,1.30
2022-11-12T18:59:45.946Z,0.90
2022-11-12T19:02:47.807Z,0.80
2022-11-12T19:05:50.296Z,0.60
2022-11-12T19:08:51.547Z,0.50
2022-11-12T19:11:53.120Z,0.50
2022-11-12T19:14:54.463Z,0.55
2022-11-12T19:17:56.356Z,0.45
2022-11-12T19:21:03.751Z,0.60
2022-11-12T19:24:05.983Z,0.40
2022-11-12T19:27:07.702Z,0.50
2022-11-12T19:30:10.473Z,0.40
2022-11-12T19:33:11.770Z,0.40
2022-11-12T19:36:16.413Z,0.40
2022-11-12T19:39:17.785Z,0.70
2022-11-12T19:42:19.385Z,0.55
2022-11-12T19:45:20.713Z,0.70
2022-11-12T19:48:22.175Z,0.77
2022-11-12T19:51:25.264Z,0.77
2022-11-12T19:54:26.558Z,0.68
2022-11-12T19:57:29.123Z,0.52
2022-11-12T20:00:30.773Z,0.50
2022-11-12T20:03:32.124Z,0.60
2022-11-12T20:06:37.667Z,0.60
2022-11-12T20:09:39.361Z,0.43
2022-11-12T20:12:40.850Z,0.40
2022-11-12T20:15:43.556Z,0.45
2022-11-12T20:18:49.803Z,0.50
2022-11-12T20:21:54.028Z,0.40
2022-11-12T20:24:55.454Z,0.55
2022-11-12T20:27:56.903Z,1.00
2022-11-12T20:31:03.657Z,1.35
2022-11-12T20:34:05.206Z,1.10
2022-11-12T20:37:08.068Z,0.70
2022-11-12T20:40:10.291Z,0.77
2022-11-12T20:43:11.700Z,0.70
2022-11-12T20:46:14.421Z,0.43
2022-11-12T20:49:16.112Z,0.57
2022-11-12T20:52:18.696Z,0.60
2022-11-12T20:55:20.379Z,0.57
2022-11-12T20:58:21.742Z,0.50
2022-11-12T21:01:24.697Z,0.40
2022-11-12T21:04:27.171Z,0.40
2022-11-12T21:07:29.904Z,0.40
2022-11-12T21:10:32.103Z,0.20
2022-11-12T21:13:34.907Z,0.30
2022-11-12T21:16:36.163Z,0.35
2022-11-12T21:19:37.727Z,0.40
2022-11-12T21:22:40.395Z,0.50
2022-11-12T21:25:41.978Z,0.60
2022-11-12T21:28:44.279Z,0.60
2022-11-12T21:31:45.819Z,0.40
2022-11-12T21:34:47.092Z,0.40
2022-11-12T21:37:49.923Z,0.40
2022-11-12T21:40:51.299Z,0.40
2022-11-12T21:43:52.609Z,0.20
2022-11-12T21:46:53.698Z,0.38
2022-11-12T21:49:55.289Z,0.30
2022-11-12T21:52:58.514Z,0.30
2022-11-12T21:56:04.126Z,0.40
2022-11-12T22:02:07.630Z,0.45
2022-11-12T22:05:09.814Z,0.30
2022-11-12T22:08:12.896Z,0.50
2022-11-12T22:11:16.009Z,0.40
2022-11-12T22:14:17.329Z,0.40
2022-11-12T22:17:18.673Z,0.30
2022-11-12T22:20:20.010Z,0.40
2022-11-12T22:23:22.914Z,0.30
2022-11-12T22:26:26.646Z,0.50
2022-11-12T22:29:28.335Z,0.40
2022-11-12T22:32:29.649Z,0.30
2022-11-12T22:35:30.862Z,0.40
2022-11-12T22:38:37.357Z,0.20
2022-11-12T22:41:38.813Z,0.40
2022-11-12T22:44:40.252Z,0.20
2022-11-12T22:47:41.495Z,0.65
2022-11-12T22:50:43.140Z,0.50
2022-11-12T22:53:46.583Z,0.30
2022-11-12T22:56:47.932Z,0.45
2022-11-12T22:59:49.406Z,0.50
2022-11-12T23:02:50.921Z,0.43
2022-11-12T23:05:57.790Z,0.60
2022-11-12T23:09:01.622Z,0.40
2022-11-12T23:12:03.381Z,0.35
2022-11-12T23:15:05.548Z,0.60
2022-11-12T23:18:07.121Z,0.40
2022-11-12T23:21:11.139Z,0.30
2022-11-12T23:24:14.433Z,0.10
2022-11-12T23:27:16.045Z,0.20
2022-11-12T23:30:17.982Z,0.20
2022-11-12T23:33:19.286Z,0.10
2022-11-12T23:36:21.649Z,0.13
2022-11-12T23:39:24.428Z,0.17
2022-11-12T23:42:26.008Z,0.20
2022-11-12T23:45:27.290Z,0.10
2022-11-12T23:48:29.624Z,0.20
2022-11-12T23:51:31.370Z,0.10
2022-11-12T23:54:34.104Z,0.10
2022-11-12T23:57:35.558Z,0.15
